createdAt,value
2022-10-04T00:00:44.502Z,12.43
2022-10-04T00:03:18.518Z,13.80
2022-10-04T00:05:50.256Z,14.00
2022-10-04T00:08:42.247Z,12.98
2022-10-04T00:11:18.403Z,13.32
2022-10-04T00:13:55.654Z,14.05
2022-10-04T00:16:35.873Z,14.40
2022-10-04T00:19:14.591Z,23.95
2022-10-04T00:22:00.068Z,15.32
2022-10-04T00:24:29.148Z,18.75
2022-10-04T00:27:25.110Z,21.17
2022-10-04T00:30:03.767Z,26.58
2022-10-04T00:32:42.758Z,23.42
2022-10-04T00:35:27.167Z,21.92
2022-10-04T00:38:26.120Z,18.05
2022-10-04T00:41:00.936Z,15.95
2022-10-04T00:43:36.485Z,20.73
2022-10-04T00:46:07.554Z,39.20
2022-10-04T00:48:51.514Z,35.35
2022-10-04T00:51:38.137Z,33.25
2022-10-04T00:54:18.149Z,23.33
2022-10-04T00:57:04.915Z,25.73
2022-10-04T00:59:34.379Z,42.75
2022-10-04T01:02:23.156Z,36.67
2022-10-04T01:05:04.130Z,28.05
2022-10-04T01:07:35.369Z,25.23
2022-10-04T01:12:40.785Z,37.17
2022-10-04T01:15:14.215Z,69.35
2022-10-04T01:17:40.576Z,23.33
2022-10-04T01:20:34.720Z,23.02
2022-10-04T01:23:03.711Z,38.33
2022-10-04T01:25:44.920Z,25.48
2022-10-04T01:28:11.371Z,23.30
2022-10-04T01:30:37.837Z,43.53
2022-10-04T01:33:06.814Z,16.15
2022-10-04T01:35:35.406Z,24.58
2022-10-04T01:38:07.186Z,28.20
2022-10-04T01:40:36.454Z,21.67
2022-10-04T01:43:09.115Z,21.98
2022-10-04T01:45:40.560Z,32.40
2022-10-04T01:48:12.747Z,11.35
2022-10-04T01:50:59.074Z,40.70
2022-10-04T01:53:32.026Z,38.53
2022-10-04T01:56:09.192Z,17.92
2022-10-04T01:58:49.022Z,34.30
2022-10-04T02:01:35.416Z,28.45
2022-10-04T02:04:04.880Z,29.92
2022-10-04T02:06:38.749Z,27.75
2022-10-04T02:09:22.206Z,27.38
2022-10-04T02:11:52.583Z,19.42
2022-10-04T02:14:22.927Z,19.57
2022-10-04T02:16:52.323Z,24.97
2022-10-04T02:19:19.623Z,26.90
2022-10-04T02:21:47.702Z,11.85
2022-10-04T02:24:14.927Z,20.70
2022-10-04T02:26:41.498Z,19.23
2022-10-04T02:29:09.624Z,17.70
2022-10-04T02:31:57.130Z,20.45
2022-10-04T02:34:23.614Z,66.10
2022-10-04T02:36:51.675Z,21.25
2022-10-04T02:39:30.184Z,25.98
2022-10-04T02:42:02.685Z,32.33
2022-10-04T02:44:57.540Z,30.60
2022-10-04T02:47:29.556Z,14.10
2022-10-04T02:50:00.520Z,24.05
2022-10-04T02:52:42.283Z,48.65
2022-10-04T02:55:24.571Z,18.23
2022-10-04T02:57:52.408Z,19.80
2022-10-04T03:00:31.000Z,17.02
2022-10-04T03:03:36.881Z,19.55
2022-10-04T03:06:17.889Z,12.95
2022-10-04T03:08:50.161Z,23.63
2022-10-04T03:11:20.917Z,24.52
2022-10-04T03:13:52.198Z,18.25
2022-10-04T03:18:48.122Z,33.00
2022-10-04T03:21:17.117Z,18.15
2022-10-04T03:23:44.900Z,26.35
2022-10-04T03:26:14.214Z,14.40
2022-10-04T03:28:40.784Z,14.40
2022-10-04T03:31:07.477Z,17.05
2022-10-04T03:33:34.115Z,17.50
2022-10-04T03:36:01.651Z,15.18
2022-10-04T03:38:28.993Z,11.23
2022-10-04T03:40:59.218Z,8.07
2022-10-04T03:43:31.346Z,12.23
2022-10-04T03:46:00.334Z,12.43
2022-10-04T03:48:52.053Z,8.45
2022-10-04T03:51:26.388Z,13.68
2022-10-04T03:53:57.171Z,13.88
2022-10-04T03:56:29.514Z,13.70
2022-10-04T03:58:56.954Z,15.43
2022-10-04T04:01:40.728Z,13.88
2022-10-04T04:04:31.110Z,12.07
2022-10-04T04:07:07.266Z,22.73
2022-10-04T04:09:51.863Z,17.48
2022-10-04T04:12:44.276Z,14.10
2022-10-04T04:15:13.641Z,19.60
2022-10-04T04:17:47.224Z,20.45
2022-10-04T04:20:31.546Z,14.63
2022-10-04T04:23:02.341Z,11.65
2022-10-04T04:25:32.466Z,16.42
2022-10-04T04:28:20.819Z,14.38
2022-10-04T04:30:53.344Z,20.38
2022-10-04T04:33:41.460Z,11.18
2022-10-04T04:36:12.276Z,16.65
2022-10-04T04:38:57.746Z,23.00
2022-10-04T04:41:26.200Z,35.20
2022-10-04T04:43:52.704Z,27.23
2022-10-04T04:46:27.616Z,19.27
2022-10-04T04:49:02.326Z,24.00
2022-10-04T04:51:31.513Z,26.42
2022-10-04T04:54:01.123Z,24.08
2022-10-04T04:56:30.531Z,21.85
2022-10-04T04:59:03.122Z,15.70
2022-10-04T05:01:42.776Z,13.63
2022-10-04T05:04:09.283Z,14.85
2022-10-04T05:06:37.872Z,14.80
2022-10-04T05:09:05.492Z,14.25
2022-10-04T05:11:38.829Z,13.35
2022-10-04T05:14:05.844Z,19.83
2022-10-04T05:16:35.270Z,14.80
2022-10-04T05:19:14.633Z,13.88
2022-10-04T05:21:46.643Z,12.85
2022-10-04T05:24:24.216Z,12.27
2022-10-04T05:26:55.031Z,23.48
2022-10-04T05:29:26.751Z,24.25
2022-10-04T05:32:03.389Z,18.17
2022-10-04T05:34:36.188Z,17.58
2022-10-04T05:37:20.660Z,24.08
2022-10-04T05:39:55.644Z,17.05
2022-10-04T05:42:26.891Z,26.85
2022-10-04T05:47:27.541Z,18.67
2022-10-04T05:49:59.140Z,18.00
2022-10-04T05:52:27.946Z,15.68
2022-10-04T05:55:12.932Z,17.25
2022-10-04T05:58:19.145Z,15.15
2022-10-04T06:01:00.973Z,16.50
2022-10-04T06:03:48.094Z,17.20
2022-10-04T06:06:42.091Z,17.35
2022-10-04T06:09:34.406Z,20.27
2022-10-04T06:12:30.065Z,23.15
2022-10-04T06:15:34.094Z,21.10
2022-10-04T06:18:25.354Z,15.02
2022-10-04T06:21:19.288Z,14.68
2022-10-04T06:24:05.253Z,18.27
2022-10-04T06:26:48.159Z,17.83
2022-10-04T06:29:20.567Z,14.05
2022-10-04T06:32:08.899Z,12.63
2022-10-04T06:34:56.687Z,14.95
2022-10-04T06:38:02.246Z,14.15
2022-10-04T06:40:38.562Z,10.45
2022-10-04T06:43:21.646Z,9.07
2022-10-04T06:46:12.698Z,14.07
2022-10-04T06:49:03.758Z,12.13
2022-10-04T06:52:00.149Z,9.63
2022-10-04T06:54:55.504Z,10.30
2022-10-04T06:58:00.039Z,10.52
2022-10-04T07:00:29.769Z,13.73
2022-10-04T07:03:14.527Z,11.48
2022-10-04T07:05:59.386Z,21.55
2022-10-04T07:08:49.856Z,14.77
2022-10-04T07:11:25.372Z,37.50
2022-10-04T07:14:15.110Z,31.67
2022-10-04T07:16:57.495Z,20.20
2022-10-04T07:19:27.921Z,10.95
2022-10-04T07:22:06.261Z,17.30
2022-10-04T07:24:51.752Z,18.55
2022-10-04T07:28:14.186Z,22.35
2022-10-04T07:30:48.165Z,19.75
2022-10-04T07:33:20.707Z,16.88
2022-10-04T07:36:06.312Z,17.45
2022-10-04T07:38:37.336Z,12.40
2022-10-04T07:41:13.418Z,21.63
2022-10-04T07:43:56.162Z,20.20
2022-10-04T07:46:47.531Z,17.35
2022-10-04T07:49:23.576Z,23.38
2022-10-04T07:52:25.571Z,16.08
2022-10-04T07:55:05.774Z,19.17
2022-10-04T07:57:54.079Z,17.80
2022-10-04T08:00:36.958Z,18.55
2022-10-04T08:03:18.982Z,17.02
2022-10-04T08:05:55.070Z,18.30
2022-10-04T08:08:41.731Z,15.90
2022-10-04T08:11:33.562Z,15.60
2022-10-04T08:14:13.190Z,20.25
2022-10-04T08:17:20.859Z,22.00
2022-10-04T08:20:02.972Z,13.80
2022-10-04T08:22:41.075Z,21.60
2022-10-04T08:25:29.408Z,12.93
2022-10-04T08:28:23.010Z,18.23
2022-10-04T08:31:20.878Z,17.80
2022-10-04T08:34:02.318Z,18.00
2022-10-04T08:38:59.864Z,21.10
2022-10-04T08:44:56.759Z,14.10
2022-10-04T08:47:57.655Z,16.50
2022-10-04T08:50:48.983Z,16.38
2022-10-04T08:53:45.789Z,14.95
2022-10-04T08:56:40.426Z,17.45
2022-10-04T08:59:48.433Z,13.93
2022-10-04T09:02:47.867Z,13.48
2022-10-04T09:05:39.212Z,15.95
2022-10-04T09:08:59.956Z,19.13
2022-10-04T09:11:44.578Z,16.05
2022-10-04T09:14:43.025Z,19.52
2022-10-04T09:17:22.662Z,18.13
2022-10-04T09:20:36.787Z,19.20
2022-10-04T09:23:08.993Z,24.30
2022-10-04T09:25:41.825Z,26.83
2022-10-04T09:28:45.066Z,20.02
2022-10-04T09:31:39.332Z,20.95
2022-10-04T09:34:37.241Z,21.95
2022-10-04T09:37:29.079Z,21.30
2022-10-04T09:42:58.931Z,21.20
2022-10-04T09:45:37.940Z,21.55
2022-10-04T09:48:25.378Z,21.63
2022-10-04T09:51:13.709Z,19.85
2022-10-04T09:53:55.774Z,22.20
2022-10-04T09:57:01.133Z,20.77
2022-10-04T09:59:46.243Z,22.77
2022-10-04T10:02:46.806Z,25.40
2022-10-04T10:05:28.371Z,26.33
2022-10-04T10:08:42.639Z,26.38
2022-10-04T10:11:39.788Z,25.40
2022-10-04T10:14:17.998Z,27.75
2022-10-04T10:17:20.558Z,25.77
2022-10-04T10:20:09.932Z,30.25
2022-10-04T10:23:00.396Z,29.80
2022-10-04T10:25:59.173Z,26.42
2022-10-04T10:28:51.384Z,25.38
2022-10-04T10:31:35.173Z,27.25
2022-10-04T10:34:17.600Z,23.83
2022-10-04T10:37:08.961Z,28.13
2022-10-04T10:39:53.592Z,24.98
2022-10-04T10:42:39.676Z,22.05
2022-10-04T10:45:45.724Z,26.40
2022-10-04T10:48:47.780Z,20.25
2022-10-04T10:51:31.319Z,19.38
2022-10-04T10:54:16.582Z,22.27
2022-10-04T10:57:14.030Z,24.98
2022-10-04T11:00:02.279Z,19.23
2022-10-04T11:03:13.227Z,21.98
2022-10-04T11:06:12.048Z,17.98
2022-10-04T11:09:09.155Z,16.98
2022-10-04T11:12:13.187Z,16.05
2022-10-04T11:15:04.895Z,18.30
2022-10-04T11:17:46.730Z,18.48
2022-10-04T11:20:24.629Z,14.68
2022-10-04T11:23:09.784Z,21.02
2022-10-04T11:25:44.892Z,15.43
2022-10-04T11:28:26.746Z,16.13
2022-10-04T11:30:59.067Z,19.38
2022-10-04T11:34:03.204Z,18.30
2022-10-04T11:36:48.222Z,18.15
2022-10-04T11:39:58.366Z,13.23
2022-10-04T11:42:49.315Z,14.13
2022-10-04T11:45:24.091Z,16.63
2022-10-04T11:48:11.348Z,12.80
2022-10-04T11:50:40.898Z,12.80
2022-10-04T11:53:13.858Z,15.90
2022-10-04T11:56:04.414Z,15.15
2022-10-04T11:58:50.406Z,19.88
2022-10-04T12:01:32.129Z,23.58
2022-10-04T12:04:19.140Z,15.68
2022-10-04T12:07:23.018Z,9.40
2022-10-04T12:10:03.133Z,16.58
2022-10-04T12:12:38.766Z,13.52
2022-10-04T12:15:11.926Z,14.38
2022-10-04T12:18:15.614Z,12.73
2022-10-04T12:21:20.903Z,14.43
2022-10-04T12:23:56.386Z,13.77
2022-10-04T12:26:43.544Z,10.27
2022-10-04T12:29:38.104Z,16.73
2022-10-04T12:32:10.616Z,11.57
2022-10-04T12:35:22.451Z,14.40
2022-10-04T12:38:15.484Z,10.60
2022-10-04T12:41:18.987Z,7.30
2022-10-04T12:44:10.776Z,8.02
2022-10-04T12:46:54.632Z,10.20
2022-10-04T12:49:46.671Z,8.50
2022-10-04T12:52:19.788Z,8.32
2022-10-04T12:54:55.707Z,7.15
2022-10-04T12:57:24.950Z,9.00
2022-10-04T12:59:54.908Z,10.45
2022-10-04T13:02:56.070Z,11.55
2022-10-04T13:05:37.467Z,9.43
2022-10-04T13:08:22.684Z,8.45
2022-10-04T13:11:26.886Z,9.48
2022-10-04T13:13:53.254Z,15.52
2022-10-04T13:19:28.114Z,10.65
2022-10-04T13:22:54.726Z,12.23
2022-10-04T13:25:30.060Z,7.95
2022-10-04T13:28:20.580Z,10.13
2022-10-04T13:31:05.895Z,13.13
2022-10-04T13:34:17.132Z,8.43
2022-10-04T13:36:57.040Z,15.07
2022-10-04T13:39:23.385Z,7.38
2022-10-04T13:42:12.101Z,7.95
2022-10-04T13:44:49.115Z,6.97
2022-10-04T13:47:41.586Z,10.45
2022-10-04T13:50:31.531Z,8.50
2022-10-04T13:53:34.952Z,10.82
2022-10-04T13:56:27.853Z,7.40
2022-10-04T13:59:15.655Z,10.35
2022-10-04T14:02:27.660Z,10.13
2022-10-04T14:05:10.330Z,9.55
2022-10-04T14:07:55.472Z,11.93
2022-10-04T14:10:43.569Z,16.10
2022-10-04T14:13:48.775Z,10.43
2022-10-04T14:16:39.576Z,10.18
2022-10-04T14:19:34.569Z,10.60
2022-10-04T14:22:07.152Z,13.05
2022-10-04T14:24:36.774Z,16.60
2022-10-04T14:27:31.636Z,9.65
2022-10-04T14:30:08.005Z,11.15
2022-10-04T14:32:52.933Z,9.75
2022-10-04T14:35:27.629Z,9.13
2022-10-04T14:38:15.000Z,13.00
2022-10-04T14:40:49.988Z,9.45
2022-10-04T14:43:54.680Z,10.60
2022-10-04T14:46:55.235Z,7.53
2022-10-04T14:49:43.641Z,8.47
2022-10-04T14:52:33.921Z,8.10
2022-10-04T14:55:26.165Z,7.50
2022-10-04T14:58:05.168Z,9.25
2022-10-04T15:00:59.637Z,7.28
2022-10-04T15:03:36.107Z,8.43
2022-10-04T15:06:10.441Z,10.10
2022-10-04T15:08:51.386Z,6.97
2022-10-04T15:11:32.548Z,9.77
2022-10-04T15:14:03.176Z,9.20
2022-10-04T15:16:45.478Z,12.15
2022-10-04T15:19:21.108Z,9.80
2022-10-04T15:22:02.555Z,6.93
2022-10-04T15:24:46.822Z,8.25
2022-10-04T15:27:22.725Z,6.65
2022-10-04T15:30:22.104Z,7.20
2022-10-04T15:33:11.438Z,9.32
2022-10-04T15:35:56.791Z,7.93
2022-10-04T15:38:35.184Z,6.35
2022-10-04T15:41:07.551Z,7.35
2022-10-04T15:43:43.215Z,5.82
2022-10-04T15:46:35.155Z,9.25
2022-10-04T15:49:38.345Z,10.13
2022-10-04T15:52:10.789Z,8.23
2022-10-04T15:54:56.030Z,8.32
2022-10-04T15:57:42.199Z,6.28
2022-10-04T16:00:13.795Z,9.07
2022-10-04T16:03:14.161Z,8.13
2022-10-04T16:05:59.980Z,8.60
2022-10-04T16:08:47.117Z,8.40
2022-10-04T16:11:41.618Z,7.07
2022-10-04T16:14:46.940Z,7.60
2022-10-04T16:17:22.161Z,7.88
2022-10-04T16:20:26.029Z,6.00
2022-10-04T16:23:21.877Z,10.52
2022-10-04T16:25:48.891Z,7.88
2022-10-04T16:28:31.458Z,9.73
2022-10-04T16:31:20.103Z,7.88
2022-10-04T16:34:07.110Z,12.60
2022-10-04T16:36:56.592Z,7.22
2022-10-04T16:39:55.451Z,7.70
2022-10-04T16:42:44.915Z,6.82
2022-10-04T16:45:11.830Z,12.95
2022-10-04T16:47:47.248Z,6.88
2022-10-04T16:50:33.908Z,9.85
2022-10-04T16:53:34.351Z,10.13
2022-10-04T16:56:14.327Z,10.15
2022-10-04T16:59:00.984Z,12.93
2022-10-04T17:02:05.896Z,14.00
2022-10-04T17:04:39.246Z,11.80
2022-10-04T17:07:27.409Z,13.30
2022-10-04T17:10:04.423Z,18.38
2022-10-04T17:12:54.100Z,15.65
2022-10-04T17:15:20.466Z,16.63
2022-10-04T17:17:51.116Z,15.88
2022-10-04T17:20:41.855Z,19.92
2022-10-04T17:23:59.083Z,17.48
2022-10-04T17:27:05.697Z,19.92
2022-10-04T17:29:57.307Z,15.32
2022-10-04T17:32:32.683Z,24.73
2022-10-04T17:35:17.136Z,19.30
2022-10-04T17:37:57.615Z,18.77
2022-10-04T17:40:35.372Z,17.37
2022-10-04T17:43:33.891Z,19.92
2022-10-04T17:46:09.920Z,18.90
2022-10-04T17:49:04.860Z,17.17
2022-10-04T17:52:02.990Z,20.15
2022-10-04T17:55:01.716Z,19.30
2022-10-04T17:57:42.568Z,17.30
2022-10-04T18:00:10.032Z,20.50
2022-10-04T18:03:02.461Z,19.88
2022-10-04T18:05:41.135Z,25.35
2022-10-04T18:08:07.465Z,19.42
2022-10-04T18:10:38.522Z,20.35
2022-10-04T18:13:15.551Z,18.27
2022-10-04T18:15:54.678Z,21.27
2022-10-04T18:18:30.612Z,19.08
2022-10-04T18:21:05.429Z,20.45
2022-10-04T18:23:39.294Z,22.70
2022-10-04T18:26:17.364Z,28.67
2022-10-04T18:28:44.861Z,46.67
2022-10-04T18:31:36.569Z,46.75
2022-10-04T18:34:28.837Z,48.40
2022-10-04T18:37:05.680Z,46.75
2022-10-04T18:39:43.165Z,40.45
2022-10-04T18:42:29.305Z,28.98
2022-10-04T18:45:01.188Z,29.83
2022-10-04T18:47:36.937Z,23.95
2022-10-04T18:50:29.108Z,25.83
2022-10-04T18:53:37.183Z,20.25
2022-10-04T18:56:12.355Z,21.25
2022-10-04T18:59:11.651Z,14.75
2022-10-04T19:01:56.988Z,19.50
2022-10-04T19:04:46.402Z,17.70
2022-10-04T19:07:32.575Z,17.60
2022-10-04T19:10:03.357Z,25.35
2022-10-04T19:12:42.408Z,18.90
2022-10-04T19:15:26.395Z,15.73
2022-10-04T19:18:09.934Z,20.77
2022-10-04T19:20:51.739Z,20.67
2022-10-04T19:23:21.099Z,22.23
2022-10-04T19:26:26.311Z,15.63
2022-10-04T19:28:39.835Z,21.67
2022-10-04T19:31:06.367Z,19.58
2022-10-04T19:33:45.798Z,18.52
2022-10-04T19:36:27.582Z,17.77
2022-10-04T19:39:03.028Z,14.57
2022-10-04T19:41:48.488Z,15.63
2022-10-04T19:44:31.724Z,19.70
2022-10-04T19:47:13.155Z,16.75
2022-10-04T19:50:00.929Z,19.50
2022-10-04T19:52:53.772Z,16.60
2022-10-04T19:55:28.632Z,16.00
2022-10-04T19:58:16.383Z,18.17
2022-10-04T20:00:42.860Z,15.60
2022-10-04T20:03:13.077Z,18.52
2022-10-04T20:09:56.177Z,19.90
2022-10-04T20:12:37.678Z,17.60
2022-10-04T20:15:17.090Z,15.55
2022-10-04T20:17:45.562Z,16.40
2022-10-04T20:20:36.984Z,17.15
2022-10-04T20:25:45.686Z,19.65
2022-10-04T20:28:27.497Z,15.13
2022-10-04T20:30:58.759Z,13.52
2022-10-04T20:33:34.296Z,14.75
2022-10-04T20:36:13.093Z,15.05
2022-10-04T20:38:48.610Z,14.30
2022-10-04T20:41:50.277Z,14.57
2022-10-04T20:44:55.284Z,9.65
2022-10-04T20:47:37.961Z,12.75
2022-10-04T20:50:12.533Z,13.30
2022-10-04T20:52:45.422Z,22.92
2022-10-04T20:55:39.991Z,20.23
2022-10-04T20:58:24.945Z,18.40
2022-10-04T21:00:56.852Z,18.20
2022-10-04T21:03:24.420Z,13.88
2022-10-04T21:06:03.841Z,21.10
2022-10-04T21:08:30.624Z,15.25
2022-10-04T21:11:08.913Z,16.55
2022-10-04T21:13:46.730Z,15.95
2022-10-04T21:16:42.544Z,19.50
2022-10-04T21:19:35.509Z,21.40
2022-10-04T21:22:05.713Z,16.58
2022-10-04T21:24:50.043Z,24.63
2022-10-04T21:27:29.844Z,21.05
2022-10-04T21:29:57.261Z,19.80
2022-10-04T21:32:25.414Z,16.48
2022-10-04T21:34:53.905Z,20.02
2022-10-04T21:37:21.316Z,27.77
2022-10-04T21:39:47.902Z,19.63
2022-10-04T21:42:14.556Z,20.70
2022-10-04T21:44:40.922Z,19.58
2022-10-04T21:47:07.298Z,18.30
2022-10-04T21:49:33.654Z,16.65
2022-10-04T21:52:00.092Z,17.15
2022-10-04T21:54:26.428Z,14.73
2022-10-04T21:56:53.936Z,14.32
2022-10-04T21:59:20.994Z,16.65
2022-10-04T22:01:47.389Z,20.77
2022-10-04T22:04:13.843Z,18.52
2022-10-04T22:06:40.427Z,19.33
2022-10-04T22:09:06.866Z,21.83
2022-10-04T22:11:33.472Z,25.95
2022-10-04T22:14:00.087Z,26.70
2022-10-04T22:16:26.597Z,20.83
2022-10-04T22:18:53.124Z,26.27
2022-10-04T22:21:19.514Z,18.63
2022-10-04T22:23:45.934Z,12.50
2022-10-04T22:26:21.591Z,14.60
2022-10-04T22:28:50.509Z,17.80
2022-10-04T22:31:20.090Z,15.23
2022-10-04T22:33:49.032Z,15.23
2022-10-04T22:36:22.487Z,15.60
2022-10-04T22:39:09.158Z,27.88
2022-10-04T22:41:40.425Z,13.52
2022-10-04T22:46:42.291Z,19.30
2022-10-04T22:49:11.334Z,17.92
2022-10-04T22:51:40.184Z,15.35
2022-10-04T22:54:15.355Z,15.07
2022-10-04T22:56:42.102Z,12.70
2022-10-04T22:59:10.898Z,14.57
2022-10-04T23:01:37.834Z,9.52
2022-10-04T23:04:11.107Z,19.48
2022-10-04T23:06:37.531Z,11.23
2022-10-04T23:09:04.017Z,19.13
2022-10-04T23:11:33.632Z,9.70
2022-10-04T23:14:00.046Z,9.77
2022-10-04T23:16:26.551Z,13.07
2022-10-04T23:19:02.326Z,15.10
2022-10-04T23:21:31.897Z,19.80
2022-10-04T23:24:05.863Z,21.33
2022-10-04T23:26:38.721Z,22.20
2022-10-04T23:29:26.435Z,19.85
2022-10-04T23:31:54.095Z,17.80
2022-10-04T23:34:26.564Z,27.38
2022-10-04T23:36:53.036Z,18.75
2022-10-04T23:39:26.050Z,21.33
2022-10-04T23:41:54.863Z,19.60
2022-10-04T23:44:33.977Z,21.92
2022-10-04T23:47:01.212Z,21.83
2022-10-04T23:49:28.100Z,19.17
2022-10-04T23:52:00.894Z,17.45
2022-10-04T23:54:27.636Z,21.77
2022-10-04T23:56:54.111Z,21.35
2022-10-04T23:59:23.811Z,20.88
